Time;durP1;ratioP1;P1;durP2;ratioP2;P2;SDS_P1;SDS_P2;PMS_P1;PMS_P2;Temp;Humidity;BMP_temperature;BMP_pressure;BME280_temperature;BME280_humidity;BME280_pressure;Samples;Min_cycle;Max_cycle;Signal;HPM_P1;HPM_P2
2021/11/28 00:01:49;;;;;;;6.00;5.40;;;1.50;99.90;;;;;;4941735;29;20446;-82
2021/11/28 00:04:15;;;;;;;5.83;4.40;;;1.40;99.90;;;;;;4941039;29;20594;-82
2021/11/28 00:06:51;;;;;;;6.17;4.10;;;1.50;99.90;;;;;;4942481;29;20428;-81
2021/11/28 00:12:12;;;;;;;6.93;4.00;;;1.50;99.90;;;;;;4940432;29;20468;-82
2021/11/28 00:14:39;;;;;;;4.27;3.83;;;1.50;99.90;;;;;;4939416;29;20467;-81
2021/11/28 00:17:05;;;;;;;6.97;2.90;;;1.50;99.90;;;;;;4939713;29;20511;-82
2021/11/28 00:19:31;;;;;;;3.60;3.30;;;1.60;99.90;;;;;;4939234;29;20463;-82
2021/11/28 00:21:56;;;;;;;4.33;3.90;;;1.60;99.90;;;;;;4939569;29;20212;-82
2021/11/28 00:24:22;;;;;;;3.90;3.53;;;1.60;99.90;;;;;;4938912;28;20211;-82
2021/11/28 00:26:48;;;;;;;6.10;3.90;;;1.50;99.90;;;;;;4938472;29;20221;-82
2021/11/28 00:29:14;;;;;;;7.90;3.80;;;1.60;99.90;;;;;;4936681;29;20610;-82
2021/11/28 00:31:40;;;;;;;6.97;3.70;;;1.60;99.90;;;;;;4937776;29;20531;-82
2021/11/28 00:34:05;;;;;;;13.63;4.50;;;1.60;99.90;;;;;;4937366;29;20421;-83
2021/11/28 00:36:31;;;;;;;6.67;3.63;;;1.60;99.90;;;;;;4939295;29;20401;-83
2021/11/28 00:38:56;;;;;;;5.30;3.60;;;1.60;99.90;;;;;;4938736;29;20229;-82
2021/11/28 00:41:22;;;;;;;3.50;3.03;;;1.70;99.90;;;;;;4939028;29;20198;-83
2021/11/28 00:43:48;;;;;;;5.20;3.27;;;1.60;99.90;;;;;;4939118;29;20177;-83
2021/11/28 00:46:13;;;;;;;4.23;3.40;;;1.70;99.90;;;;;;4939049;29;20210;-82
2021/11/28 00:48:42;;;;;;;5.80;4.70;;;1.70;99.90;;;;;;4939219;29;20188;-82
2021/11/28 00:53:43;;;;;;;6.07;5.00;;;1.80;99.90;;;;;;4939199;29;20372;-82
2021/11/28 00:56:09;;;;;;;5.90;4.50;;;1.90;99.90;;;;;;4938571;29;20474;-82
2021/11/28 00:58:34;;;;;;;5.57;4.10;;;1.90;99.90;;;;;;4939107;29;20543;-82
2021/11/28 05:32:52;;;;;;;6.67;4.07;;;1.50;99.90;;;;;;5081667;23;20524;-75
2021/11/28 05:35:17;;;;;;;7.10;3.63;;;1.50;99.90;;;;;;4953277;28;20906;-71
2021/11/28 05:37:43;;;;;;;3.07;2.87;;;1.50;99.90;;;;;;4954687;28;20204;-72
2021/11/28 05:40:10;;;;;;;11.33;2.83;;;1.40;99.90;;;;;;4954577;28;20178;-71
2021/11/28 05:42:35;;;;;;;5.47;3.70;;;1.50;99.90;;;;;;4954088;28;20195;-73
2021/11/28 05:45:02;;;;;;;5.97;3.10;;;1.40;99.90;;;;;;4949740;28;20428;-73
2021/11/28 05:47:27;;;;;;;2.83;2.20;;;1.40;99.90;;;;;;4938941;29;20191;-73
2021/11/28 05:49:53;;;;;;;5.83;2.57;;;1.40;99.90;;;;;;4935500;29;20996;-73
2021/11/28 05:52:18;;;;;;;4.77;3.00;;;1.50;99.90;;;;;;4934973;29;20234;-73
2021/11/28 05:54:46;;;;;;;2.70;2.13;;;1.60;99.90;;;;;;4935312;29;20214;-73
2021/11/28 05:57:12;;;;;;;2.37;2.03;;;1.50;99.90;;;;;;4935143;29;20179;-73
2021/11/28 05:59:37;;;;;;;4.70;3.00;;;1.50;99.90;;;;;;4935375;29;20827;-73
2021/11/28 06:02:03;;;;;;;3.17;2.50;;;1.40;99.90;;;;;;4934558;29;20204;-73
2021/11/28 06:04:29;;;;;;;3.63;2.47;;;1.40;99.90;;;;;;4935576;29;20178;-73
2021/11/28 06:06:54;;;;;;;3.00;2.33;;;1.40;99.90;;;;;;4934524;29;20733;-73
2021/11/28 06:09:20;;;;;;;2.10;2.00;;;1.40;99.90;;;;;;4934893;29;20855;-73
2021/11/28 06:11:45;;;;;;;4.60;2.37;;;1.40;99.90;;;;;;4934950;29;20201;-73
2021/11/28 06:14:11;;;;;;;3.83;3.03;;;1.40;99.90;;;;;;4933248;29;20190;-73
2021/11/28 06:16:36;;;;;;;5.27;2.90;;;1.40;99.90;;;;;;4935030;29;20686;-73
2021/11/28 06:19:02;;;;;;;3.20;2.90;;;1.40;99.90;;;;;;4933292;29;20215;-73
2021/11/28 06:21:27;;;;;;;10.30;2.97;;;1.40;99.90;;;;;;4934690;29;20285;-73
2021/11/28 06:23:53;;;;;;;2.97;2.70;;;1.40;99.90;;;;;;4934325;29;20180;-73
2021/11/28 06:26:18;;;;;;;3.87;2.90;;;1.40;99.90;;;;;;4934635;29;20189;-73
2021/11/28 06:28:44;;;;;;;5.47;2.50;;;1.40;99.90;;;;;;4934582;29;20193;-73
2021/11/28 06:31:09;;;;;;;5.03;2.67;;;1.40;99.90;;;;;;4934505;29;20705;-73
2021/11/28 06:33:35;;;;;;;2.40;2.20;;;1.40;99.90;;;;;;4934230;29;20592;-74
2021/11/28 06:36:01;;;;;;;2.80;2.57;;;1.40;99.90;;;;;;4934542;29;20212;-73
2021/11/28 06:38:26;;;;;;;3.13;2.93;;;1.40;99.90;;;;;;4934482;29;20301;-73
2021/11/28 06:40:52;;;;;;;5.90;3.10;;;1.40;99.90;;;;;;4934397;29;20204;-74
2021/11/28 06:43:18;;;;;;;4.63;3.30;;;1.50;99.90;;;;;;4933957;29;20183;-73
2021/11/28 06:45:43;;;;;;;9.20;3.17;;;1.50;99.90;;;;;;4934344;29;20178;-73
2021/11/28 06:48:09;;;;;;;5.50;4.70;;;1.50;99.90;;;;;;4934205;29;20185;-73
2021/11/28 06:50:35;;;;;;;4.37;3.67;;;1.50;99.90;;;;;;4934173;29;20188;-72
2021/11/28 06:53:03;;;;;;;5.20;4.40;;;1.50;99.90;;;;;;4934867;29;20775;-72
2021/11/28 06:55:29;;;;;;;3.03;2.70;;;1.50;99.90;;;;;;4935085;29;20225;-71
2021/11/28 06:57:55;;;;;;;8.03;3.80;;;1.50;99.90;;;;;;4935278;29;20465;-72
2021/11/28 07:00:22;;;;;;;5.43;3.53;;;1.50;99.90;;;;;;4934935;29;20389;-72
2021/11/28 07:02:48;;;;;;;3.13;2.90;;;1.50;99.90;;;;;;4934763;29;20894;-69
2021/11/28 07:05:13;;;;;;;4.27;3.33;;;1.50;99.90;;;;;;4935041;29;20480;-72
2021/11/28 07:07:39;;;;;;;5.83;3.30;;;1.60;99.90;;;;;;4935016;29;20253;-72
2021/11/28 07:10:05;;;;;;;3.80;2.80;;;1.60;99.90;;;;;;4934767;29;20186;-72
2021/11/28 07:12:31;;;;;;;7.27;3.57;;;1.70;99.90;;;;;;4934702;29;20264;-72
2021/11/28 07:14:57;;;;;;;4.43;2.77;;;1.60;99.90;;;;;;4933568;29;20425;-72
2021/11/28 07:17:22;;;;;;;3.90;3.43;;;1.60;99.90;;;;;;4936395;29;20181;-72
2021/11/28 07:19:48;;;;;;;6.50;4.27;;;1.70;99.90;;;;;;4938321;29;20205;-72
2021/11/28 07:22:14;;;;;;;4.40;4.00;;;1.70;99.90;;;;;;4938123;29;20579;-71
2021/11/28 07:24:39;;;;;;;4.60;3.37;;;1.70;99.90;;;;;;4938401;29;20214;-72
2021/11/28 07:27:05;;;;;;;7.23;3.70;;;1.70;99.90;;;;;;4938321;29;20181;-72
2021/11/28 07:29:31;;;;;;;3.97;2.93;;;1.70;99.90;;;;;;4938398;29;20569;-71
2021/11/28 07:31:56;;;;;;;4.40;2.83;;;1.70;99.90;;;;;;4939248;29;20305;-71
2021/11/28 07:34:22;;;;;;;6.77;3.90;;;1.70;99.90;;;;;;4952269;28;20204;-72
2021/11/28 07:36:47;;;;;;;5.30;3.70;;;1.80;99.90;;;;;;4956742;28;20186;-72
2021/11/28 07:39:13;;;;;;;4.07;3.23;;;1.80;99.90;;;;;;4956701;28;20549;-71
2021/11/28 07:41:40;;;;;;;2.90;2.70;;;1.90;99.90;;;;;;4956765;28;20597;-70
2021/11/28 07:44:05;;;;;;;3.27;2.97;;;1.90;99.90;;;;;;4956546;28;20454;-71
2021/11/28 07:46:31;;;;;;;4.23;3.80;;;1.90;99.90;;;;;;4956884;28;20849;-71
2021/11/28 07:48:57;;;;;;;3.10;2.90;;;2.00;99.90;;;;;;4956495;28;20430;-71
2021/11/28 07:51:23;;;;;;;3.37;3.07;;;2.00;99.90;;;;;;4956431;28;20317;-71
2021/11/28 07:53:51;;;;;;;8.00;3.23;;;2.00;99.90;;;;;;4956238;28;20190;-72
2021/11/28 07:56:19;;;;;;;5.60;3.30;;;2.00;99.90;;;;;;4956287;28;20446;-72
2021/11/28 07:58:45;;;;;;;4.83;3.37;;;2.10;99.90;;;;;;4956175;28;20440;-71
2021/11/28 08:01:10;;;;;;;5.90;3.07;;;2.10;99.90;;;;;;4956192;28;20463;-72
2021/11/28 08:03:36;;;;;;;3.90;2.67;;;2.20;99.90;;;;;;4955897;28;20391;-71
2021/11/28 08:06:02;;;;;;;3.27;2.30;;;2.20;99.90;;;;;;4956300;28;20669;-71
2021/11/28 08:08:28;;;;;;;2.50;2.30;;;2.30;99.90;;;;;;4955949;28;20181;-71
2021/11/28 08:10:54;;;;;;;3.70;2.40;;;2.30;99.90;;;;;;4956162;28;20207;-72
2021/11/28 08:13:21;;;;;;;4.43;3.20;;;2.40;99.90;;;;;;4955616;28;20416;-71
2021/11/28 08:15:47;;;;;;;3.20;2.67;;;2.40;99.90;;;;;;4956151;28;20397;-71
2021/11/28 08:18:13;;;;;;;4.70;2.63;;;2.40;99.90;;;;;;4955828;28;20502;-71
2021/11/28 08:20:38;;;;;;;2.70;2.50;;;2.50;99.90;;;;;;4955969;28;20412;-72
2021/11/28 08:23:04;;;;;;;4.20;2.67;;;2.50;99.90;;;;;;4955649;28;20588;-72
2021/11/28 08:25:31;;;;;;;4.73;3.10;;;2.50;99.90;;;;;;4955781;28;20195;-72
2021/11/28 08:27:56;;;;;;;4.60;4.00;;;2.50;99.90;;;;;;4955610;28;20526;-72
2021/11/28 08:30:22;;;;;;;3.27;3.00;;;2.50;99.90;;;;;;4955501;28;20452;-70
2021/11/28 08:32:49;;;;;;;4.43;2.77;;;2.60;99.90;;;;;;4955398;28;20776;-71
2021/11/28 08:35:15;;;;;;;2.60;2.40;;;2.60;99.90;;;;;;4952412;28;20438;-72
2021/11/28 08:37:41;;;;;;;4.63;2.27;;;2.60;99.90;;;;;;4945551;28;20945;-72
2021/11/28 08:40:09;;;;;;;3.40;2.67;;;2.70;99.90;;;;;;4939054;28;20460;-72
2021/11/28 08:42:35;;;;;;;2.80;2.20;;;2.70;99.90;;;;;;4947702;28;20460;-72
2021/11/28 08:45:03;;;;;;;3.10;2.50;;;2.80;99.90;;;;;;4943415;28;20451;-72
2021/11/28 08:47:29;;;;;;;4.53;2.70;;;2.80;99.90;;;;;;4943277;28;20473;-71
2021/11/28 08:49:55;;;;;;;3.47;2.80;;;2.90;99.90;;;;;;4955068;28;20460;-72
2021/11/28 08:52:20;;;;;;;2.20;2.00;;;2.90;99.90;;;;;;4950539;28;20229;-72
2021/11/28 08:54:46;;;;;;;4.30;2.33;;;2.90;99.90;;;;;;4935996;29;20208;-72
2021/11/28 08:57:11;;;;;;;3.20;2.90;;;2.90;99.90;;;;;;4934840;28;20283;-71
2021/11/28 08:59:37;;;;;;;3.33;3.03;;;3.00;99.90;;;;;;4947511;28;20252;-72
2021/11/28 09:02:02;;;;;;;5.60;2.50;;;3.00;99.90;;;;;;4954581;28;20217;-71
2021/11/28 09:04:28;;;;;;;3.20;2.33;;;3.00;99.90;;;;;;4954935;28;20267;-71
2021/11/28 09:06:54;;;;;;;4.47;2.97;;;3.10;99.90;;;;;;4954848;28;20233;-71
2021/11/28 09:09:19;;;;;;;3.40;3.10;;;3.10;99.90;;;;;;4940968;28;20282;-72
2021/11/28 09:11:45;;;;;;;4.63;2.30;;;3.10;99.90;;;;;;4955137;28;20230;-72
2021/11/28 09:14:11;;;;;;;6.30;3.07;;;3.20;99.90;;;;;;4954570;28;20204;-72
2021/11/28 09:16:37;;;;;;;3.43;2.90;;;3.20;99.90;;;;;;4941591;28;20227;-73
2021/11/28 09:19:17;;;;;;;6.10;3.40;;;3.20;99.90;;;;;;4938115;29;20468;-72
2021/11/28 09:21:43;;;;;;;3.27;2.60;;;3.20;99.90;;;;;;4950231;28;20216;-73
2021/11/28 09:26:52;;;;;;;3.23;2.93;;;3.30;99.90;;;;;;4954841;28;20275;-72
2021/11/28 09:29:18;;;;;;;5.00;3.40;;;3.30;99.90;;;;;;4952933;28;20551;-73
2021/11/28 09:31:44;;;;;;;13.10;2.90;;;3.40;99.90;;;;;;4943733;28;20237;-72
2021/11/28 09:34:09;;;;;;;4.23;3.00;;;3.40;99.90;;;;;;4942266;28;20205;-72
2021/11/28 09:36:35;;;;;;;3.77;2.97;;;3.40;99.90;;;;;;4953266;28;20233;-71
2021/11/28 09:39:03;;;;;;;3.23;2.30;;;3.40;99.90;;;;;;4953839;28;20307;-72
2021/11/28 09:41:35;;;;;;;3.60;3.30;;;3.50;99.90;;;;;;4944450;28;21044;-71
2021/11/28 09:44:07;;;;;;;5.20;3.87;;;3.50;99.90;;;;;;4943120;29;20500;-72
2021/11/28 09:46:33;;;;;;;5.00;4.47;;;3.50;99.90;;;;;;4954338;28;20986;-72
2021/11/28 09:49:01;;;;;;;6.53;5.90;;;3.50;99.90;;;;;;4942722;28;21022;-72
2021/11/28 09:51:27;;;;;;;7.33;5.10;;;3.60;99.90;;;;;;4934891;28;20427;-71
2021/11/28 09:53:56;;;;;;;8.00;4.73;;;3.60;99.90;;;;;;4946193;29;20456;-71
2021/11/28 09:56:23;;;;;;;5.03;4.53;;;3.60;99.90;;;;;;4953457;28;20444;-71
2021/11/28 09:58:50;;;;;;;5.77;4.20;;;3.60;99.90;;;;;;4953374;28;20471;-71
2021/11/28 10:01:16;;;;;;;3.70;3.37;;;3.60;99.90;;;;;;4953765;28;20934;-71
2021/11/28 10:03:41;;;;;;;3.80;3.30;;;3.70;99.90;;;;;;4940720;28;20454;-71
2021/11/28 10:06:07;;;;;;;4.80;3.00;;;3.70;99.90;;;;;;4942093;28;20465;-72
2021/11/28 10:08:33;;;;;;;9.00;4.73;;;3.80;99.90;;;;;;4934381;28;20225;-71
2021/11/28 10:11:18;;;;;;;7.90;4.60;;;3.80;99.90;;;;;;4934106;29;20309;-71
2021/11/28 10:13:49;;;;;;;6.30;3.80;;;3.80;99.90;;;;;;4933355;28;20721;-71
2021/11/28 10:16:16;;;;;;;4.30;3.80;;;3.80;99.90;;;;;;4952051;29;20449;-71
2021/11/28 10:18:43;;;;;;;4.13;3.73;;;3.80;99.90;;;;;;4938874;28;20597;-72
2021/11/28 10:21:09;;;;;;;8.77;4.10;;;3.80;99.90;;;;;;4944008;28;21053;-72
2021/11/28 10:23:35;;;;;;;5.77;3.80;;;3.70;99.90;;;;;;4940228;28;20473;-71
2021/11/28 10:26:17;;;;;;;3.53;3.10;;;3.70;99.90;;;;;;4944479;29;20837;-71
2021/11/28 10:29:03;;;;;;;4.63;3.90;;;3.70;99.90;;;;;;4953158;28;20304;-72
2021/11/28 10:31:29;;;;;;;5.03;4.63;;;3.80;99.90;;;;;;4948196;28;20469;-71
2021/11/28 10:34:13;;;;;;;11.43;4.47;;;3.80;99.90;;;;;;4946875;28;20532;-72
2021/11/28 10:36:38;;;;;;;4.90;4.50;;;3.80;99.90;;;;;;4949330;28;20212;-71
2021/11/28 10:39:21;;;;;;;5.67;4.17;;;3.90;99.90;;;;;;4954317;28;20479;-72
2021/11/28 10:41:53;;;;;;;4.20;3.73;;;3.90;99.90;;;;;;4946759;28;20570;-71
2021/11/28 10:44:23;;;;;;;6.90;4.53;;;3.90;99.90;;;;;;4944274;28;20508;-72
2021/11/28 10:46:50;;;;;;;4.97;3.97;;;3.90;99.90;;;;;;4936523;28;20782;-71
2021/11/28 10:49:21;;;;;;;5.00;4.50;;;3.90;99.90;;;;;;4942952;28;20994;-71
2021/11/28 10:51:50;;;;;;;6.73;4.50;;;3.90;99.90;;;;;;4933709;28;20425;-71
2021/11/28 10:54:30;;;;;;;5.70;5.20;;;3.90;99.90;;;;;;4947731;29;20802;-71
2021/11/28 10:57:08;;;;;;;5.27;4.77;;;3.90;99.90;;;;;;4944412;28;20450;-71
2021/11/28 10:59:35;;;;;;;9.23;4.60;;;3.90;99.90;;;;;;4940045;29;20498;-71
2021/11/28 11:02:17;;;;;;;6.67;5.63;;;3.90;99.90;;;;;;4940370;28;20440;-71
2021/11/28 11:04:42;;;;;;;10.17;5.80;;;3.80;99.90;;;;;;4945217;28;20411;-71
2021/11/28 11:07:11;;;;;;;6.37;5.77;;;3.90;99.90;;;;;;4949403;28;20470;-71
2021/11/28 11:09:42;;;;;;;9.87;5.30;;;3.90;99.90;;;;;;4934593;29;20202;-71
2021/11/28 11:12:32;;;;;;;6.57;4.23;;;3.90;99.90;;;;;;4933301;28;20471;-71
2021/11/28 11:14:58;;;;;;;8.37;5.50;;;3.90;99.90;;;;;;4940658;29;20447;-71
2021/11/28 11:17:27;;;;;;;5.40;4.40;;;4.10;99.90;;;;;;4953724;28;20528;-70
2021/11/28 11:19:53;;;;;;;6.13;4.53;;;4.00;99.90;;;;;;4953329;28;20788;-71
2021/11/28 11:22:27;;;;;;;7.50;5.33;;;4.00;99.90;;;;;;4939036;28;20497;-71
2021/11/28 11:25:01;;;;;;;7.23;5.07;;;4.00;99.90;;;;;;4933952;29;20454;-71
2021/11/28 11:27:33;;;;;;;7.37;4.97;;;4.00;99.90;;;;;;4941606;28;20482;-71
2021/11/28 11:30:01;;;;;;;5.57;5.07;;;4.10;99.90;;;;;;4938077;28;20911;-71
2021/11/28 11:32:57;;;;;;;8.47;5.67;;;4.10;99.90;;;;;;4942410;28;20485;-70
2021/11/28 11:35:28;;;;;;;6.37;4.80;;;4.20;99.90;;;;;;4942404;29;20444;-71
2021/11/28 11:38:02;;;;;;;7.40;5.80;;;4.20;99.90;;;;;;4941388;28;20489;-71
2021/11/28 11:40:28;;;;;;;6.07;4.77;;;4.20;99.90;;;;;;4942223;28;21004;-71
2021/11/28 11:42:54;;;;;;;6.60;4.63;;;4.20;99.90;;;;;;4934360;28;20543;-71
2021/11/28 11:45:25;;;;;;;6.73;5.90;;;4.30;99.90;;;;;;4935539;29;20538;-70
2021/11/28 11:47:52;;;;;;;7.73;5.27;;;4.30;99.90;;;;;;4952657;28;20318;-72
2021/11/28 11:50:22;;;;;;;7.90;5.53;;;4.20;99.90;;;;;;4938331;28;20425;-72
2021/11/28 11:52:49;;;;;;;8.93;4.90;;;4.20;99.90;;;;;;4943243;28;20510;-71
2021/11/28 11:55:18;;;;;;;5.70;5.00;;;4.20;99.90;;;;;;4952670;28;20477;-71
2021/11/28 11:58:09;;;;;;;4.87;4.30;;;4.30;99.90;;;;;;4951342;28;20482;-72
2021/11/28 12:00:45;;;;;;;7.20;4.13;;;4.40;99.90;;;;;;4940826;28;20531;-71
2021/11/28 12:03:21;;;;;;;7.00;4.73;;;4.40;99.90;;;;;;4945210;28;21000;-70
2021/11/28 12:05:48;;;;;;;7.20;5.70;;;4.30;99.90;;;;;;4963559;28;20502;-72
2021/11/28 12:08:13;;;;;;;7.23;4.87;;;4.40;99.90;;;;;;4947192;28;20472;-71
2021/11/28 12:11:00;;;;;;;6.20;4.70;;;4.40;99.90;;;;;;4943090;29;20428;-71
2021/11/28 12:13:25;;;;;;;6.83;5.27;;;4.40;99.90;;;;;;4948179;28;20311;-71
2021/11/28 12:15:53;;;;;;;5.23;4.20;;;4.30;99.90;;;;;;4944136;28;20493;-72
2021/11/28 12:18:33;;;;;;;5.33;4.07;;;4.40;99.90;;;;;;4937738;28;20763;-72
2021/11/28 12:21:00;;;;;;;3.57;3.30;;;4.40;99.90;;;;;;4939219;28;20474;-72
2021/11/28 12:23:44;;;;;;;5.80;2.13;;;4.40;99.90;;;;;;4935487;28;20498;-71
2021/11/28 12:26:25;;;;;;;3.40;2.50;;;4.30;99.90;;;;;;4947493;29;20451;-72
2021/11/28 12:28:52;;;;;;;4.77;3.67;;;4.30;99.90;;;;;;4934731;28;20440;-71
2021/11/28 12:31:32;;;;;;;5.33;4.17;;;4.40;99.90;;;;;;4935848;29;20828;-72
2021/11/28 12:33:58;;;;;;;4.10;3.67;;;4.40;99.90;;;;;;4938182;28;20471;-71
2021/11/28 12:36:36;;;;;;;3.63;2.40;;;4.40;99.90;;;;;;4947122;28;20446;-73
2021/11/28 12:39:13;;;;;;;4.00;1.67;;;4.40;99.90;;;;;;4946974;28;20279;-71
2021/11/28 12:41:45;;;;;;;2.60;2.00;;;4.40;99.90;;;;;;4955226;28;20832;-72
2021/11/28 12:44:11;;;;;;;3.10;2.60;;;4.30;99.90;;;;;;4950920;28;21047;-72
2021/11/28 12:46:56;;;;;;;4.63;3.03;;;4.30;99.90;;;;;;4944920;28;20449;-71
2021/11/28 12:49:35;;;;;;;2.53;2.30;;;4.30;99.90;;;;;;4953277;28;20457;-72
2021/11/28 12:52:22;;;;;;;3.47;2.43;;;4.30;99.90;;;;;;4954904;28;20446;-72
2021/11/28 12:55:07;;;;;;;3.17;2.40;;;4.30;99.90;;;;;;4942886;28;20565;-71
2021/11/28 12:57:42;;;;;;;4.17;2.70;;;4.40;99.90;;;;;;4944500;28;20484;-72
2021/11/28 13:00:17;;;;;;;3.90;2.73;;;4.40;99.90;;;;;;4942941;28;20445;-71
2021/11/28 13:02:45;;;;;;;2.40;2.20;;;4.40;99.90;;;;;;4954277;28;20448;-71
2021/11/28 13:05:35;;;;;;;3.27;2.77;;;4.40;99.90;;;;;;4954826;28;20455;-72
2021/11/28 13:08:01;;;;;;;2.50;2.20;;;4.40;99.90;;;;;;4941227;28;20627;-72
2021/11/28 13:10:30;;;;;;;6.33;3.40;;;4.30;99.90;;;;;;4956629;28;20911;-71
2021/11/28 13:12:59;;;;;;;7.20;3.60;;;4.30;99.90;;;;;;4963548;28;20227;-71
2021/11/28 13:15:27;;;;;;;4.57;3.20;;;4.30;99.90;;;;;;4953160;28;20435;-72
2021/11/28 13:17:55;;;;;;;4.63;3.87;;;4.30;99.90;;;;;;4954429;28;20838;-72
2021/11/28 13:20:20;;;;;;;5.97;3.63;;;4.20;99.90;;;;;;4948363;28;20497;-71
2021/11/28 13:22:46;;;;;;;3.47;3.17;;;4.30;99.90;;;;;;4946761;28;20524;-70
2021/11/28 13:25:28;;;;;;;4.63;3.20;;;4.20;99.90;;;;;;4948563;28;20420;-72
2021/11/28 13:28:02;;;;;;;4.97;3.40;;;4.20;99.90;;;;;;4953517;28;20217;-72
2021/11/28 13:30:45;;;;;;;4.17;2.90;;;4.20;99.90;;;;;;4953094;28;20436;-71
2021/11/28 13:33:23;;;;;;;5.90;3.17;;;4.10;99.90;;;;;;4945931;28;20576;-72
2021/11/28 13:35:53;;;;;;;6.10;3.73;;;4.10;99.90;;;;;;4955251;28;20544;-73
2021/11/28 13:38:22;;;;;;;4.33;3.93;;;4.10;99.90;;;;;;4953643;28;20535;-72
2021/11/28 13:41:04;;;;;;;5.50;3.77;;;4.10;99.90;;;;;;4935865;29;20462;-72
2021/11/28 13:43:48;;;;;;;6.13;2.63;;;4.10;99.90;;;;;;4953432;28;20483;-71
2021/11/28 13:46:16;;;;;;;2.90;2.33;;;4.20;99.90;;;;;;4949893;28;20497;-72
2021/11/28 13:48:54;;;;;;;5.07;3.83;;;4.10;99.90;;;;;;4947805;28;20512;-72
2021/11/28 13:51:56;;;;;;;3.00;2.80;;;4.20;99.90;;;;;;4942087;28;20524;-72
2021/11/28 13:54:46;;;;;;;5.17;3.50;;;4.10;99.90;;;;;;4887541;29;20511;-72
2021/11/28 13:57:22;;;;;;;3.57;2.97;;;4.10;99.90;;;;;;4938279;29;20453;-71
2021/11/28 13:59:53;;;;;;;8.37;3.33;;;4.20;99.90;;;;;;4954425;28;20466;-72
2021/11/28 14:02:24;;;;;;;7.00;3.67;;;4.20;99.90;;;;;;4935257;29;20467;-72
2021/11/28 14:04:55;;;;;;;4.57;4.17;;;4.20;99.90;;;;;;4946527;28;21025;-71
2021/11/28 14:07:25;;;;;;;5.03;4.50;;;4.20;99.90;;;;;;4946840;29;20513;-71
2021/11/28 14:09:53;;;;;;;9.50;5.03;;;4.20;99.90;;;;;;4954167;28;20942;-72
2021/11/28 14:12:29;;;;;;;6.07;4.40;;;4.20;99.90;;;;;;4941399;28;20455;-72
2021/11/28 14:15:07;;;;;;;8.20;4.43;;;4.20;99.90;;;;;;4953213;28;20530;-71
2021/11/28 14:17:33;;;;;;;5.63;5.13;;;4.20;99.90;;;;;;4953275;28;20794;-73
2021/11/28 14:20:06;;;;;;;8.70;5.77;;;4.20;99.90;;;;;;4950858;28;20470;-72
2021/11/28 14:22:34;;;;;;;6.90;5.20;;;4.20;99.90;;;;;;4934541;29;21059;-73
2021/11/28 14:25:18;;;;;;;6.90;6.00;;;4.10;99.90;;;;;;4938723;28;20434;-72
2021/11/28 14:28:16;;;;;;;6.23;5.30;;;4.10;99.90;;;;;;4940571;28;20441;-74
2021/11/28 14:30:48;;;;;;;5.93;5.33;;;4.10;99.90;;;;;;4951617;28;20474;-72
2021/11/28 14:33:15;;;;;;;7.30;6.17;;;4.10;99.90;;;;;;4933193;28;20450;-71
2021/11/28 14:35:56;;;;;;;8.23;6.53;;;4.00;99.90;;;;;;4949104;29;20453;-72
2021/11/28 14:38:22;;;;;;;8.17;7.00;;;4.00;99.90;;;;;;4940545;28;20518;-72
2021/11/28 14:41:01;;;;;;;8.67;7.00;;;4.00;99.90;;;;;;4934118;29;20535;-72
2021/11/28 14:43:33;;;;;;;11.13;7.00;;;3.90;99.90;;;;;;4950339;28;20328;-71
2021/11/28 14:46:01;;;;;;;9.73;7.50;;;3.90;99.90;;;;;;4953650;28;20461;-72
2021/11/28 14:48:27;;;;;;;11.40;10.20;;;3.90;99.90;;;;;;4964780;28;20532;-72
2021/11/28 14:50:54;;;;;;;9.27;7.93;;;3.90;99.90;;;;;;4939285;28;20514;-72
2021/11/28 14:53:24;;;;;;;8.60;7.67;;;3.90;99.90;;;;;;4934044;28;20240;-72
2021/11/28 14:55:52;;;;;;;11.77;8.00;;;3.90;99.90;;;;;;4937261;29;20528;-72
2021/11/28 14:58:41;;;;;;;8.60;6.90;;;3.80;99.90;;;;;;4952742;28;20838;-72
2021/11/28 15:01:17;;;;;;;15.53;11.43;;;3.80;99.90;;;;;;4952698;28;20412;-71
2021/11/28 15:04:08;;;;;;;33.00;14.60;;;3.80;99.90;;;;;;4934967;28;20569;-72
2021/11/28 15:07:12;;;;;;;36.00;21.40;;;3.80;99.90;;;;;;4938556;29;20468;-72
2021/11/28 15:09:39;;;;;;;10.40;6.20;;;3.70;99.90;;;;;;4940626;28;20537;-72
2021/11/28 15:12:29;;;;;;;21.83;11.67;;;3.70;99.90;;;;;;4952876;28;20411;-72
2021/11/28 15:15:06;;;;;;;9.43;6.27;;;3.70;99.90;;;;;;4942401;28;20468;-72
2021/11/28 15:17:33;;;;;;;12.80;6.20;;;3.70;99.90;;;;;;4940658;28;20818;-72
2021/11/28 15:20:05;;;;;;;11.60;7.03;;;3.70;99.90;;;;;;4952698;28;20447;-72
2021/11/28 15:22:30;;;;;;;7.67;6.87;;;3.60;99.90;;;;;;4952791;28;20471;-73
2021/11/28 15:24:56;;;;;;;7.63;6.30;;;3.60;99.90;;;;;;4949101;28;20874;-73
2021/11/28 15:27:21;;;;;;;13.03;7.30;;;3.60;99.90;;;;;;4933820;29;20214;-71
2021/11/28 15:29:47;;;;;;;9.17;7.07;;;3.60;99.90;;;;;;4935802;28;20285;-72
2021/11/28 15:32:14;;;;;;;9.97;6.57;;;3.50;99.90;;;;;;4952915;28;20715;-72
2021/11/28 15:34:40;;;;;;;15.70;9.37;;;3.50;99.90;;;;;;4937769;28;20551;-72
2021/11/28 15:37:06;;;;;;;11.00;8.37;;;3.40;99.90;;;;;;4940341;28;20457;-72
2021/11/28 15:39:32;;;;;;;11.60;8.00;;;3.40;99.90;;;;;;4941180;28;20488;-71
2021/11/28 15:41:58;;;;;;;12.70;7.70;;;3.50;99.90;;;;;;4943527;28;20486;-72
2021/11/28 15:44:23;;;;;;;12.23;6.17;;;3.40;99.90;;;;;;4936845;28;20237;-72
2021/11/28 15:46:51;;;;;;;8.20;6.10;;;3.40;99.90;;;;;;4949434;28;20211;-72
2021/11/28 15:49:17;;;;;;;13.87;6.80;;;3.40;99.90;;;;;;4945032;28;20604;-73
2021/11/28 15:51:43;;;;;;;8.10;7.30;;;3.40;99.90;;;;;;4955991;28;20941;-72
2021/11/28 15:54:09;;;;;;;10.50;6.80;;;3.40;99.90;;;;;;4955406;28;20623;-73
2021/11/28 15:56:34;;;;;;;8.80;6.63;;;3.50;99.90;;;;;;4937273;29;20217;-73
2021/11/28 15:59:00;;;;;;;11.60;5.60;;;3.50;99.90;;;;;;4936142;28;20220;-72
2021/11/28 16:01:26;;;;;;;7.57;5.80;;;3.50;99.90;;;;;;4943185;28;20303;-73
2021/11/28 16:03:55;;;;;;;14.17;5.63;;;3.40;99.90;;;;;;4950784;28;20718;-73
2021/11/28 16:06:21;;;;;;;7.43;5.93;;;3.40;99.90;;;;;;4955999;28;20201;-73
2021/11/28 16:08:49;;;;;;;5.93;5.43;;;3.40;99.90;;;;;;4948285;28;20433;-73
2021/11/28 16:11:19;;;;;;;6.80;5.77;;;3.40;99.90;;;;;;4942456;28;20430;-73
2021/11/28 16:13:46;;;;;;;9.83;5.63;;;3.40;99.90;;;;;;4943916;28;20432;-73
2021/11/28 16:16:12;;;;;;;7.87;5.97;;;3.30;99.90;;;;;;4954158;28;20546;-73
2021/11/28 16:18:37;;;;;;;8.97;6.03;;;3.30;99.90;;;;;;4948260;28;20545;-74
2021/11/28 16:21:04;;;;;;;10.20;6.73;;;3.30;99.90;;;;;;4939475;28;20225;-73
2021/11/28 16:23:29;;;;;;;18.57;7.23;;;3.30;99.90;;;;;;4948225;28;20209;-74
2021/11/28 16:25:55;;;;;;;10.53;6.80;;;3.20;99.90;;;;;;4949063;28;20504;-74
2021/11/28 16:28:21;;;;;;;9.47;6.67;;;3.30;99.90;;;;;;4947116;28;20265;-73
2021/11/28 16:30:49;;;;;;;12.13;6.50;;;3.30;99.90;;;;;;4951410;28;20279;-73
2021/11/28 16:33:18;;;;;;;19.50;9.37;;;3.20;99.90;;;;;;4954524;28;20260;-74
2021/11/28 16:35:45;;;;;;;22.63;11.40;;;3.30;99.90;;;;;;4941432;28;20461;-73
2021/11/28 16:38:11;;;;;;;26.10;12.80;;;3.30;99.90;;;;;;4935887;29;20477;-74
2021/11/28 16:40:37;;;;;;;27.50;13.00;;;3.30;99.90;;;;;;4936018;28;20457;-73
2021/11/28 16:43:05;;;;;;;26.47;14.70;;;3.20;99.90;;;;;;4935564;29;20211;-74
2021/11/28 16:45:31;;;;;;;19.27;10.90;;;3.30;99.90;;;;;;4947796;28;20492;-73
2021/11/28 16:47:59;;;;;;;10.93;9.33;;;3.30;99.90;;;;;;4935814;29;20435;-74
2021/11/28 16:50:25;;;;;;;13.40;9.00;;;3.30;99.90;;;;;;4940874;28;20439;-74
2021/11/28 16:52:51;;;;;;;17.37;11.30;;;3.30;99.90;;;;;;4953415;28;20466;-73
2021/11/28 16:55:17;;;;;;;15.73;12.10;;;3.20;99.90;;;;;;4943803;28;20471;-74
2021/11/28 16:57:43;;;;;;;24.37;14.37;;;3.20;99.90;;;;;;4948286;29;20460;-71
2021/11/28 17:00:11;;;;;;;23.60;13.57;;;3.10;99.90;;;;;;4951982;28;20468;-73
2021/11/28 17:02:37;;;;;;;21.53;12.50;;;3.10;99.90;;;;;;4949120;28;20423;-74
2021/11/28 17:05:03;;;;;;;11.27;7.27;;;3.20;99.90;;;;;;4943257;28;20447;-73
2021/11/28 17:07:29;;;;;;;13.17;7.87;;;3.20;99.90;;;;;;4952927;28;20206;-73
2021/11/28 17:09:55;;;;;;;8.93;6.87;;;3.20;99.90;;;;;;4944551;28;20809;-74
2021/11/28 17:12:24;;;;;;;10.37;6.87;;;3.10;99.90;;;;;;4953918;28;20450;-73
2021/11/28 17:14:51;;;;;;;14.10;11.10;;;3.10;99.90;;;;;;4942229;28;20267;-74
2021/11/28 17:17:17;;;;;;;17.23;12.43;;;3.10;99.90;;;;;;4952897;28;20431;-73
2021/11/28 17:19:42;;;;;;;11.90;8.93;;;3.10;99.90;;;;;;4954080;28;20492;-73
2021/11/28 17:22:08;;;;;;;11.70;6.90;;;3.10;99.90;;;;;;4953169;28;20209;-72
2021/11/28 17:24:33;;;;;;;11.20;7.20;;;3.20;99.90;;;;;;4954006;28;20579;-73
2021/11/28 17:26:59;;;;;;;8.87;7.30;;;3.20;99.90;;;;;;4940888;28;20228;-73
2021/11/28 17:29:24;;;;;;;10.33;7.77;;;3.10;99.90;;;;;;4941321;28;20233;-74
2021/11/28 17:31:50;;;;;;;9.33;7.67;;;3.10;99.90;;;;;;4952714;28;20675;-73
2021/11/28 17:34:15;;;;;;;9.47;7.77;;;3.10;99.90;;;;;;4953599;28;20205;-71
2021/11/28 17:36:41;;;;;;;10.97;6.97;;;3.00;99.90;;;;;;4953342;28;20310;-74
2021/11/28 17:39:06;;;;;;;6.67;6.07;;;3.10;99.90;;;;;;4952619;28;20216;-73
2021/11/28 17:41:32;;;;;;;12.07;8.60;;;3.00;99.90;;;;;;4952128;28;20750;-73
2021/11/28 17:43:58;;;;;;;10.80;7.60;;;3.10;99.90;;;;;;4942053;28;20205;-74
2021/11/28 17:46:24;;;;;;;9.57;6.03;;;3.00;99.90;;;;;;4952239;28;20244;-73